Time;durP1;ratioP1;P1;durP2;ratioP2;P2;SDS_P1;SDS_P2;PMS_P1;PMS_P2;Temp;Humidity;BMP_temperature;BMP_pressure;BME280_temperature;BME280_humidity;BME280_pressure;Samples;Min_cycle;Max_cycle;Signal;HPM_P1;HPM_P2
2022/01/14 00:00:07;;;;;;;3.67;3.37;;;;;;;;;;4993388;28;20191;-66
2022/01/14 00:02:40;;;;;;;3.40;3.10;;;;;;;;;;5005527;28;20743;-66
2022/01/14 00:05:15;;;;;;;3.20;2.90;;;;;;;;;;5006020;28;20231;-67
2022/01/14 00:07:45;;;;;;;3.63;3.33;;;;;;;;;;5005128;28;21512;-67
2022/01/14 00:10:17;;;;;;;4.50;3.50;;;;;;;;;;5017282;28;20201;-67
2022/01/14 00:12:52;;;;;;;3.40;3.10;;;;;;;;;;5014483;28;20199;-67
2022/01/14 00:15:28;;;;;;;3.70;3.40;;;;;;;;;;4995584;28;20245;-66
2022/01/14 00:18:02;;;;;;;3.70;3.40;;;;;;;;;;5020239;28;20906;-66
2022/01/14 00:20:30;;;;;;;3.63;3.33;;;;;;;;;;5031650;28;20382;-66
2022/01/14 00:23:08;;;;;;;3.30;3.00;;;;;;;;;;5025780;28;20268;-67
2022/01/14 00:34:04;;;;;;;4.47;3.60;;;;;;;;;;5027010;28;20207;-67
2022/01/14 00:36:37;;;;;;;3.50;3.20;;;;;;;;;;5029692;28;20207;-67
2022/01/14 00:39:08;;;;;;;3.10;2.90;;;;;;;;;;5033840;28;20209;-67
2022/01/14 00:41:38;;;;;;;3.77;3.47;;;;;;;;;;5022620;28;20214;-67
2022/01/14 00:44:14;;;;;;;3.40;3.13;;;;;;;;;;5028598;28;20214;-67
2022/01/14 00:46:47;;;;;;;3.90;3.50;;;;;;;;;;5025562;28;20256;-67
2022/01/14 00:49:18;;;;;;;3.80;3.50;;;;;;;;;;5035393;28;20198;-67
2022/01/14 00:51:47;;;;;;;3.83;3.53;;;;;;;;;;5025932;28;20283;-67
2022/01/14 00:54:18;;;;;;;3.60;3.30;;;;;;;;;;5034859;28;20237;-67
2022/01/14 00:57:02;;;;;;;4.00;3.70;;;;;;;;;;5027140;28;20203;-67
2022/01/14 00:59:32;;;;;;;3.50;3.20;;;;;;;;;;5037696;28;20230;-67
2022/01/14 01:02:01;;;;;;;3.73;3.43;;;;;;;;;;5032257;28;20207;-66
2022/01/14 01:04:38;;;;;;;3.13;2.93;;;;;;;;;;5037095;28;20288;-67
2022/01/14 01:07:12;;;;;;;3.63;3.33;;;;;;;;;;5024465;28;20217;-67
2022/01/14 01:09:49;;;;;;;3.67;3.37;;;;;;;;;;5021164;28;20512;-67
2022/01/14 01:12:32;;;;;;;3.83;3.53;;;;;;;;;;5014142;28;20609;-67
2022/01/14 01:15:11;;;;;;;3.70;3.40;;;;;;;;;;5032503;28;20211;-67
2022/01/14 01:17:44;;;;;;;3.37;3.17;;;;;;;;;;5025770;28;20585;-67
2022/01/14 01:20:19;;;;;;;3.43;3.13;;;;;;;;;;5014014;28;20209;-67
2022/01/14 01:22:54;;;;;;;3.30;3.10;;;;;;;;;;5030450;28;20203;-67
2022/01/14 01:25:27;;;;;;;3.30;3.00;;;;;;;;;;5026894;28;20222;-67
2022/01/14 01:27:57;;;;;;;3.40;3.10;;;;;;;;;;5028442;28;20641;-67
2022/01/14 01:33:01;;;;;;;3.80;3.50;;;;;;;;;;5029322;28;20207;-67
2022/01/14 01:35:32;;;;;;;3.30;3.00;;;;;;;;;;5027414;28;20211;-67
2022/01/14 01:38:04;;;;;;;4.93;3.07;;;;;;;;;;5013465;28;20214;-67
2022/01/14 01:40:37;;;;;;;3.60;3.30;;;;;;;;;;5028686;28;20836;-67
2022/01/14 01:43:10;;;;;;;3.40;3.10;;;;;;;;;;5014142;28;20464;-66
2022/01/14 01:45:40;;;;;;;3.20;3.00;;;;;;;;;;5030887;28;20215;-67
2022/01/14 01:48:10;;;;;;;3.30;3.00;;;;;;;;;;5010730;28;20503;-66
2022/01/14 01:50:42;;;;;;;3.87;3.20;;;;;;;;;;5030529;28;20206;-67
2022/01/14 01:53:09;;;;;;;3.57;3.27;;;;;;;;;;5026243;28;20215;-67
2022/01/14 01:55:37;;;;;;;3.53;3.23;;;;;;;;;;5030751;28;20203;-67
2022/01/14 01:58:07;;;;;;;3.07;2.73;;;;;;;;;;5039377;28;20215;-67
2022/01/14 02:00:39;;;;;;;3.33;3.03;;;;;;;;;;5033124;28;20216;-67
2022/01/14 02:03:13;;;;;;;3.20;3.00;;;;;;;;;;5033298;28;20233;-67
2022/01/14 02:05:42;;;;;;;3.33;3.13;;;;;;;;;;5030994;28;20242;-67
2022/01/14 02:08:12;;;;;;;3.37;3.07;;;;;;;;;;5037314;28;20783;-67
2022/01/14 02:10:45;;;;;;;3.20;3.00;;;;;;;;;;5021898;28;20199;-67
2022/01/14 02:13:19;;;;;;;3.37;3.07;;;;;;;;;;5032424;28;20215;-67
2022/01/14 02:18:59;;;;;;;3.40;3.10;;;;;;;;;;5011304;28;20308;-67
2022/01/14 02:24:35;;;;;;;3.20;2.90;;;;;;;;;;5028122;28;20529;-67
2022/01/14 02:27:03;;;;;;;2.97;2.77;;;;;;;;;;5026617;28;20827;-67
2022/01/14 02:29:32;;;;;;;3.33;3.10;;;;;;;;;;5026942;28;20230;-67
2022/01/14 02:32:02;;;;;;;3.27;3.07;;;;;;;;;;5027807;28;20230;-67
2022/01/14 02:34:33;;;;;;;3.93;3.63;;;;;;;;;;5016465;28;20272;-67
2022/01/14 02:37:03;;;;;;;3.63;3.33;;;;;;;;;;5028147;28;20241;-67
2022/01/14 02:39:34;;;;;;;3.37;3.17;;;;;;;;;;5028528;28;20206;-66
2022/01/14 02:42:02;;;;;;;3.53;3.23;;;;;;;;;;5033067;28;20222;-66
2022/01/14 02:44:37;;;;;;;3.77;3.47;;;;;;;;;;5031930;28;20229;-66
2022/01/14 02:47:08;;;;;;;3.60;3.30;;;;;;;;;;5031446;28;20211;-67
2022/01/14 02:49:39;;;;;;;3.40;3.10;;;;;;;;;;5033126;28;20194;-67
2022/01/14 02:52:10;;;;;;;3.57;3.30;;;;;;;;;;5030202;28;20195;-66
2022/01/14 02:55:15;;;;;;;3.87;3.57;;;;;;;;;;5027037;28;20647;-66
2022/01/14 02:57:37;;;;;;;3.63;3.33;;;;;;;;;;5027803;28;20226;-66
2022/01/14 03:00:14;;;;;;;3.77;3.47;;;;;;;;;;5027946;28;20203;-67
2022/01/14 03:02:46;;;;;;;3.87;3.53;;;;;;;;;;5029119;28;20198;-66
2022/01/14 03:05:21;;;;;;;3.77;3.47;;;;;;;;;;5024094;28;20219;-66
2022/01/14 03:07:51;;;;;;;3.33;3.03;;;;;;;;;;5029713;28;20637;-66
2022/01/14 03:10:26;;;;;;;3.83;3.53;;;;;;;;;;5029457;28;20207;-66
2022/01/14 03:12:54;;;;;;;3.33;3.03;;;;;;;;;;5011930;28;20222;-66
2022/01/14 03:15:25;;;;;;;3.80;3.50;;;;;;;;;;5030663;28;20211;-66
2022/01/14 03:17:55;;;;;;;3.87;3.57;;;;;;;;;;5025653;28;20249;-67
2022/01/14 03:23:16;;;;;;;3.70;3.40;;;;;;;;;;5024403;28;20199;-66
2022/01/14 03:25:50;;;;;;;4.30;3.90;;;;;;;;;;5025693;28;20280;-66
2022/01/14 03:28:25;;;;;;;3.60;3.30;;;;;;;;;;5034678;28;20220;-67
2022/01/14 03:30:55;;;;;;;3.93;3.60;;;;;;;;;;5009937;28;20241;-66
2022/01/14 03:33:28;;;;;;;3.77;3.47;;;;;;;;;;5025353;28;20649;-67
2022/01/14 03:35:57;;;;;;;3.77;3.40;;;;;;;;;;5027420;28;20202;-67
2022/01/14 03:38:30;;;;;;;4.07;3.70;;;;;;;;;;5028998;28;20214;-66
2022/01/14 03:41:02;;;;;;;3.83;3.53;;;;;;;;;;5028144;28;20203;-66
2022/01/14 03:43:47;;;;;;;3.90;3.60;;;;;;;;;;5010118;28;20238;-66
2022/01/14 03:46:16;;;;;;;4.03;3.70;;;;;;;;;;5027245;28;20235;-67
2022/01/14 03:48:48;;;;;;;3.60;3.30;;;;;;;;;;5026884;28;20191;-67
2022/01/14 03:51:17;;;;;;;3.83;3.47;;;;;;;;;;5024362;28;20198;-67
2022/01/14 03:53:49;;;;;;;3.90;3.60;;;;;;;;;;5027687;28;20273;-67
2022/01/14 03:56:22;;;;;;;4.10;3.80;;;;;;;;;;5026307;28;20201;-66
2022/01/14 03:58:53;;;;;;;3.87;3.57;;;;;;;;;;5032714;28;20215;-66
2022/01/14 04:01:22;;;;;;;3.63;3.33;;;;;;;;;;5011629;28;20210;-66
2022/01/14 04:03:54;;;;;;;4.27;3.67;;;;;;;;;;5027183;28;20207;-67
2022/01/14 04:06:28;;;;;;;3.90;3.60;;;;;;;;;;5031288;28;20227;-67
2022/01/14 04:08:59;;;;;;;4.10;3.80;;;;;;;;;;5025542;28;20203;-66
2022/01/14 04:11:33;;;;;;;3.47;3.17;;;;;;;;;;5023538;28;20547;-66
2022/01/14 04:17:06;;;;;;;4.10;3.70;;;;;;;;;;4983140;28;20267;-66
2022/01/14 04:19:34;;;;;;;3.43;3.20;;;;;;;;;;4981920;28;20212;-66
2022/01/14 04:22:04;;;;;;;3.33;3.13;;;;;;;;;;5009241;28;20211;-66
2022/01/14 04:24:33;;;;;;;3.70;3.40;;;;;;;;;;5025778;28;20195;-67
2022/01/14 04:27:04;;;;;;;3.77;3.47;;;;;;;;;;5014337;28;20837;-68
2022/01/14 04:29:33;;;;;;;3.73;3.43;;;;;;;;;;5023893;28;20199;-65
2022/01/14 04:32:13;;;;;;;3.77;3.47;;;;;;;;;;5022574;28;20215;-65
2022/01/14 04:34:40;;;;;;;3.30;3.00;;;;;;;;;;5026863;28;20366;-65
2022/01/14 04:37:11;;;;;;;3.77;3.47;;;;;;;;;;5024509;28;20188;-66
2022/01/14 04:39:44;;;;;;;3.60;3.30;;;;;;;;;;5025635;28;20199;-67
2022/01/14 04:42:17;;;;;;;3.10;2.90;;;;;;;;;;5026363;28;20700;-66
2022/01/14 04:44:51;;;;;;;3.20;3.00;;;;;;;;;;5023255;28;20208;-66
2022/01/14 04:50:16;;;;;;;3.23;3.03;;;;;;;;;;5025533;28;20207;-66
2022/01/14 04:52:49;;;;;;;3.40;3.00;;;;;;;;;;5009309;28;20585;-66
2022/01/14 04:55:23;;;;;;;3.53;3.23;;;;;;;;;;5022498;28;20214;-68
2022/01/14 04:57:54;;;;;;;3.47;3.17;;;;;;;;;;5025941;28;20198;-68
2022/01/14 05:00:25;;;;;;;3.57;3.27;;;;;;;;;;5026181;28;20210;-67
2022/01/14 05:02:57;;;;;;;2.83;2.63;;;;;;;;;;5026847;28;20203;-66
2022/01/14 05:05:30;;;;;;;3.43;3.13;;;;;;;;;;5028256;28;20596;-67
2022/01/14 05:08:01;;;;;;;3.40;3.10;;;;;;;;;;5005651;28;20210;-67
2022/01/14 05:10:48;;;;;;;3.00;2.80;;;;;;;;;;5010606;28;20203;-67
2022/01/14 05:13:24;;;;;;;3.13;2.93;;;;;;;;;;5020134;28;20254;-67
2022/01/14 05:15:53;;;;;;;3.47;3.17;;;;;;;;;;5007055;28;20227;-67
2022/01/14 05:18:24;;;;;;;3.60;3.30;;;;;;;;;;5014590;28;20391;-68
2022/01/14 05:20:55;;;;;;;3.10;2.90;;;;;;;;;;5030982;28;20215;-68
2022/01/14 05:23:25;;;;;;;3.10;2.90;;;;;;;;;;5034957;28;20213;-67
2022/01/14 05:26:06;;;;;;;3.03;2.83;;;;;;;;;;5040852;28;20234;-67
2022/01/14 05:28:36;;;;;;;3.20;2.90;;;;;;;;;;5032145;28;20198;-67
2022/01/14 05:31:05;;;;;;;2.93;2.63;;;;;;;;;;5031167;28;20210;-67
2022/01/14 05:33:33;;;;;;;3.20;2.73;;;;;;;;;;5025403;28;20202;-67
2022/01/14 05:36:04;;;;;;;3.00;2.80;;;;;;;;;;5028777;28;20215;-68
2022/01/14 05:38:32;;;;;;;3.73;3.27;;;;;;;;;;5028185;28;20423;-67
2022/01/14 05:41:02;;;;;;;2.93;2.73;;;;;;;;;;5026760;28;20211;-68
2022/01/14 05:43:32;;;;;;;3.00;2.80;;;;;;;;;;5022702;28;20526;-67
2022/01/14 05:46:05;;;;;;;3.30;3.00;;;;;;;;;;5029946;28;20222;-67
2022/01/14 05:48:38;;;;;;;2.80;2.60;;;;;;;;;;5027971;28;20215;-68
2022/01/14 05:51:12;;;;;;;2.80;2.60;;;;;;;;;;5027668;28;20278;-68
2022/01/14 05:53:44;;;;;;;3.03;2.83;;;;;;;;;;5044195;28;20256;-68
2022/01/14 05:56:12;;;;;;;3.03;2.83;;;;;;;;;;5028858;28;20226;-68
2022/01/14 05:58:42;;;;;;;3.00;2.80;;;;;;;;;;5029396;28;20286;-68
2022/01/14 06:01:17;;;;;;;2.80;2.60;;;;;;;;;;5027862;28;20190;-68
2022/01/14 06:03:47;;;;;;;2.63;2.43;;;;;;;;;;5038928;28;20229;-68
2022/01/14 06:06:24;;;;;;;3.00;2.80;;;;;;;;;;5019638;28;20907;-68
2022/01/14 06:08:54;;;;;;;2.80;2.60;;;;;;;;;;5025384;28;20211;-68
2022/01/14 06:11:25;;;;;;;2.90;2.70;;;;;;;;;;5011425;28;20203;-68
2022/01/14 06:13:56;;;;;;;2.80;2.60;;;;;;;;;;5042581;28;20211;-69
2022/01/14 06:16:28;;;;;;;3.13;2.90;;;;;;;;;;5025064;28;20645;-67
2022/01/14 06:18:57;;;;;;;3.07;2.87;;;;;;;;;;5025447;28;20234;-67
2022/01/14 06:21:29;;;;;;;2.97;2.77;;;;;;;;;;5025768;28;21043;-67
2022/01/14 06:23:59;;;;;;;2.90;2.70;;;;;;;;;;5035755;28;20834;-67
2022/01/14 06:26:30;;;;;;;3.40;3.10;;;;;;;;;;5028906;28;20215;-67
2022/01/14 06:29:00;;;;;;;3.17;2.50;;;;;;;;;;5027185;28;20203;-67
2022/01/14 06:31:44;;;;;;;2.57;2.33;;;;;;;;;;5027980;28;20206;-67
2022/01/14 06:34:14;;;;;;;3.40;3.10;;;;;;;;;;5028131;28;20214;-67
2022/01/14 06:36:47;;;;;;;2.70;2.50;;;;;;;;;;5011915;28;20204;-67
2022/01/14 06:39:18;;;;;;;3.70;2.63;;;;;;;;;;5026041;28;20199;-67
2022/01/14 06:41:55;;;;;;;3.50;2.50;;;;;;;;;;5036366;28;20207;-67
2022/01/14 06:44:28;;;;;;;2.70;2.50;;;;;;;;;;5027724;28;20227;-67
2022/01/14 06:47:03;;;;;;;3.97;2.90;;;;;;;;;;5029495;28;20234;-67
2022/01/14 06:49:36;;;;;;;3.23;2.97;;;;;;;;;;5026736;28;20187;-67
2022/01/14 06:52:19;;;;;;;2.63;2.43;;;;;;;;;;5032601;28;20199;-67
2022/01/14 06:54:48;;;;;;;2.70;2.50;;;;;;;;;;5030693;28;20206;-67
2022/01/14 06:57:19;;;;;;;3.03;2.53;;;;;;;;;;5010583;28;20218;-67
2022/01/14 06:59:56;;;;;;;2.80;2.60;;;;;;;;;;5029951;28;20272;-67
2022/01/14 07:02:24;;;;;;;2.73;2.53;;;;;;;;;;5030006;28;20199;-67
2022/01/14 07:04:54;;;;;;;2.77;2.57;;;;;;;;;;5030942;28;20195;-67
2022/01/14 07:07:23;;;;;;;2.63;2.43;;;;;;;;;;5023272;28;20222;-68
2022/01/14 07:09:57;;;;;;;2.87;2.60;;;;;;;;;;5027815;28;20191;-67
2022/01/14 07:12:31;;;;;;;2.90;2.63;;;;;;;;;;5038382;28;20273;-70
2022/01/14 07:15:01;;;;;;;2.57;2.37;;;;;;;;;;5030527;28;20281;-68
2022/01/14 07:17:32;;;;;;;3.07;2.40;;;;;;;;;;5026393;28;20242;-68
2022/01/14 07:20:06;;;;;;;4.17;2.40;;;;;;;;;;5011441;28;20225;-70
2022/01/14 07:22:43;;;;;;;3.77;2.20;;;;;;;;;;5029554;28;20461;-69
2022/01/14 07:25:41;;;;;;;4.30;2.33;;;;;;;;;;5008042;28;20212;-70
2022/01/14 07:28:29;;;;;;;4.03;2.20;;;;;;;;;;5026212;28;20252;-66
2022/01/14 07:31:04;;;;;;;2.10;1.90;;;;;;;;;;5025757;28;20187;-66
2022/01/14 07:33:37;;;;;;;1.80;1.70;;;;;;;;;;5029521;28;20230;-67
2022/01/14 07:36:16;;;;;;;2.43;2.23;;;;;;;;;;5051723;28;20226;-69
2022/01/14 07:38:48;;;;;;;3.80;1.93;;;;;;;;;;5024016;28;20215;-74
2022/01/14 07:41:17;;;;;;;6.40;2.10;;;;;;;;;;5014429;28;20246;-65
2022/01/14 07:43:49;;;;;;;6.13;1.80;;;;;;;;;;5023617;28;20203;-65
2022/01/14 07:46:28;;;;;;;4.00;1.87;;;;;;;;;;5028202;28;20233;-65
2022/01/14 07:49:03;;;;;;;4.73;2.10;;;;;;;;;;5039315;28;20191;-65
2022/01/14 07:51:34;;;;;;;2.60;2.40;;;;;;;;;;5026431;28;20218;-66
2022/01/14 07:54:08;;;;;;;3.20;1.90;;;;;;;;;;5027581;28;20202;-67
2022/01/14 07:56:45;;;;;;;2.33;2.13;;;;;;;;;;5023602;28;20580;-67
2022/01/14 07:59:24;;;;;;;4.37;2.20;;;;;;;;;;5024791;28;20221;-66
2022/01/14 08:01:58;;;;;;;3.87;2.73;;;;;;;;;;4979120;28;20210;-66
2022/01/14 08:04:34;;;;;;;7.97;3.70;;;;;;;;;;5007536;28;20194;-67
2022/01/14 08:07:09;;;;;;;14.40;4.00;;;;;;;;;;5025003;28;20223;-68
2022/01/14 08:09:47;;;;;;;8.30;3.73;;;;;;;;;;5026552;28;20219;-68
2022/01/14 08:12:16;;;;;;;8.73;3.80;;;;;;;;;;5022424;28;20778;-68
2022/01/14 08:14:48;;;;;;;11.93;3.93;;;;;;;;;;5026671;28;20214;-67
2022/01/14 08:17:20;;;;;;;8.57;4.40;;;;;;;;;;5036180;28;20234;-69
2022/01/14 08:19:52;;;;;;;8.27;4.20;;;;;;;;;;5010585;28;20288;-71
2022/01/14 08:22:23;;;;;;;7.00;3.93;;;;;;;;;;5040734;28;20199;-70
2022/01/14 08:24:53;;;;;;;9.23;4.80;;;;;;;;;;5024901;28;20532;-68
2022/01/14 08:27:21;;;;;;;8.40;4.10;;;;;;;;;;5035981;28;20230;-68
2022/01/14 08:29:51;;;;;;;5.93;3.83;;;;;;;;;;5026020;28;20207;-69
2022/01/14 08:32:22;;;;;;;7.67;3.97;;;;;;;;;;5025114;28;20214;-65
2022/01/14 08:34:56;;;;;;;5.40;3.60;;;;;;;;;;5007119;28;20241;-67
2022/01/14 08:37:27;;;;;;;6.37;3.73;;;;;;;;;;5022901;28;20580;-66
2022/01/14 08:40:00;;;;;;;6.20;4.17;;;;;;;;;;5008355;28;20199;-66
2022/01/14 08:42:33;;;;;;;6.97;3.97;;;;;;;;;;5020136;28;20203;-67
2022/01/14 08:45:08;;;;;;;6.37;3.70;;;;;;;;;;5022409;28;20221;-67
2022/01/14 08:47:40;;;;;;;4.50;3.87;;;;;;;;;;5024639;28;20203;-68
2022/01/14 08:50:09;;;;;;;6.10;3.87;;;;;;;;;;5025956;28;20195;-68
2022/01/14 08:52:40;;;;;;;5.77;4.00;;;;;;;;;;5027235;28;20199;-69
2022/01/14 08:55:10;;;;;;;6.03;4.07;;;;;;;;;;5013066;28;20206;-69
2022/01/14 08:57:41;;;;;;;5.33;3.87;;;;;;;;;;5032193;28;20199;-73
2022/01/14 09:00:10;;;;;;;5.30;3.73;;;;;;;;;;5029657;28;20652;-69
2022/01/14 09:02:41;;;;;;;5.20;3.60;;;;;;;;;;5008906;28;20207;-70
2022/01/14 09:05:11;;;;;;;7.40;4.47;;;;;;;;;;5020843;28;20211;-68
2022/01/14 09:07:39;;;;;;;4.20;3.80;;;;;;;;;;5009026;28;20238;-68
2022/01/14 09:10:10;;;;;;;6.57;4.00;;;;;;;;;;5036319;28;20219;-67
2022/01/14 09:12:43;;;;;;;4.27;3.40;;;;;;;;;;5008050;28;20202;-66
2022/01/14 09:15:14;;;;;;;4.90;3.50;;;;;;;;;;5028312;28;20210;-69
2022/01/14 09:17:45;;;;;;;4.20;3.50;;;;;;;;;;5009549;28;20231;-66
2022/01/14 09:20:15;;;;;;;4.77;3.90;;;;;;;;;;5008530;28;20222;-66
2022/01/14 09:22:51;;;;;;;5.00;3.87;;;;;;;;;;5031022;28;20636;-65
2022/01/14 09:25:21;;;;;;;4.63;3.97;;;;;;;;;;5032692;28;20207;-66
2022/01/14 09:27:52;;;;;;;4.47;3.60;;;;;;;;;;5027106;28;20231;-67
2022/01/14 09:30:22;;;;;;;4.93;4.03;;;;;;;;;;5033487;28;20659;-66
2022/01/14 09:32:54;;;;;;;4.90;4.00;;;;;;;;;;5014740;28;20230;-67
2022/01/14 09:35:27;;;;;;;4.20;3.80;;;;;;;;;;5017642;28;20566;-67
2022/01/14 09:38:06;;;;;;;4.63;3.97;;;;;;;;;;5031924;28;20206;-67
2022/01/14 09:40:42;;;;;;;7.60;4.13;;;;;;;;;;5032818;28;20230;-66
2022/01/14 09:43:17;;;;;;;6.53;4.00;;;;;;;;;;5027053;28;20203;-66
2022/01/14 09:46:14;;;;;;;4.67;4.20;;;;;;;;;;5046122;28;20218;-68
2022/01/14 09:48:44;;;;;;;5.73;4.03;;;;;;;;;;5048944;28;20722;-67
2022/01/14 09:51:15;;;;;;;4.80;4.00;;;;;;;;;;5033252;28;20210;-67
2022/01/14 09:53:44;;;;;;;4.03;3.63;;;;;;;;;;5030838;28;20393;-66
2022/01/14 09:56:16;;;;;;;4.50;3.60;;;;;;;;;;5031569;28;20265;-69
2022/01/14 09:58:47;;;;;;;4.63;3.90;;;;;;;;;;5028808;28;20790;-69
2022/01/14 10:01:22;;;;;;;4.40;3.63;;;;;;;;;;5024504;28;20572;-70
2022/01/14 10:04:02;;;;;;;5.13;3.43;;;;;;;;;;5028297;28;20210;-70
2022/01/14 10:06:49;;;;;;;4.20;3.53;;;;;;;;;;5029331;28;20496;-69
2022/01/14 10:09:29;;;;;;;3.87;3.47;;;;;;;;;;5024378;28;20214;-70
2022/01/14 10:12:26;;;;;;;3.90;3.57;;;;;;;;;;5028014;28;20209;-68
2022/01/14 10:14:57;;;;;;;4.57;3.30;;;;;;;;;;5030037;28;20273;-68
2022/01/14 10:17:36;;;;;;;3.10;2.80;;;;;;;;;;5030418;28;20238;-68
2022/01/14 10:20:08;;;;;;;3.93;3.53;;;;;;;;;;5008081;28;20219;-68
2022/01/14 10:22:41;;;;;;;3.10;2.80;;;;;;;;;;5011973;28;20219;-68
2022/01/14 10:25:16;;;;;;;3.77;3.20;;;;;;;;;;5008035;28;20694;-68
2022/01/14 10:27:55;;;;;;;3.53;3.23;;;;;;;;;;5029576;28;20226;-67
2022/01/14 10:30:24;;;;;;;3.77;3.37;;;;;;;;;;5025332;28;20300;-67
2022/01/14 10:32:59;;;;;;;5.27;3.20;;;;;;;;;;5025998;28;20210;-66
2022/01/14 10:35:31;;;;;;;3.73;2.90;;;;;;;;;;5024785;28;20210;-69
2022/01/14 10:38:07;;;;;;;3.20;2.90;;;;;;;;;;5007399;28;20211;-70
2022/01/14 10:40:39;;;;;;;4.03;3.20;;;;;;;;;;5027442;28;20203;-68
2022/01/14 10:43:09;;;;;;;3.40;3.10;;;;;;;;;;5003910;28;20261;-69
2022/01/14 10:45:57;;;;;;;3.00;2.80;;;;;;;;;;5027729;28;20260;-68
2022/01/14 10:48:33;;;;;;;3.10;2.80;;;;;;;;;;5042355;28;20210;-68
2022/01/14 10:51:18;;;;;;;3.70;3.33;;;;;;;;;;5030971;28;20218;-67
2022/01/14 10:53:55;;;;;;;3.30;3.00;;;;;;;;;;5030138;28;20191;-66
2022/01/14 10:56:27;;;;;;;3.50;3.20;;;;;;;;;;5025583;28;20214;-71
2022/01/14 10:58:59;;;;;;;3.33;2.97;;;;;;;;;;5025266;28;20715;-71
2022/01/14 11:01:35;;;;;;;3.93;3.53;;;;;;;;;;5013370;28;20206;-70
2022/01/14 11:04:15;;;;;;;3.50;3.20;;;;;;;;;;5027703;28;20202;-69
2022/01/14 11:06:45;;;;;;;3.73;3.43;;;;;;;;;;5026069;28;20226;-70
2022/01/14 11:09:22;;;;;;;3.70;3.40;;;;;;;;;;5023698;28;20211;-71
2022/01/14 11:11:53;;;;;;;4.60;3.83;;;;;;;;;;4998633;28;20694;-68
2022/01/14 11:14:24;;;;;;;4.53;3.70;;;;;;;;;;5028303;28;20199;-67
2022/01/14 11:16:55;;;;;;;5.47;3.63;;;;;;;;;;5026354;28;20202;-69
2022/01/14 11:19:24;;;;;;;3.70;3.30;;;;;;;;;;5002367;28;20238;-68
2022/01/14 11:24:47;;;;;;;4.20;3.90;;;;;;;;;;5034955;28;20194;-68
2022/01/14 11:27:18;;;;;;;4.80;4.30;;;;;;;;;;4995975;28;20214;-68
2022/01/14 11:29:57;;;;;;;3.70;3.40;;;;;;;;;;5027980;28;20203;-68
2022/01/14 11:32:28;;;;;;;4.63;4.10;;;;;;;;;;5025335;28;20211;-69
2022/01/14 11:34:55;;;;;;;3.47;3.17;;;;;;;;;;5034164;28;20203;-68
2022/01/14 11:37:36;;;;;;;4.30;3.90;;;;;;;;;;4991587;28;20647;-69
2022/01/14 11:40:12;;;;;;;5.07;4.57;;;;;;;;;;5007695;28;20220;-69
2022/01/14 11:42:50;;;;;;;5.00;4.13;;;;;;;;;;5012269;28;20199;-68
2022/01/14 11:45:21;;;;;;;4.33;3.93;;;;;;;;;;5029073;28;20237;-67
2022/01/14 11:47:58;;;;;;;4.40;4.00;;;;;;;;;;5027703;28;20793;-68
2022/01/14 11:50:46;;;;;;;4.70;4.30;;;;;;;;;;5026783;28;20203;-68
2022/01/14 11:53:33;;;;;;;5.00;4.50;;;;;;;;;;5024425;28;20559;-68
2022/01/14 11:56:29;;;;;;;4.80;4.40;;;;;;;;;;5014533;28;20234;-69
2022/01/14 11:59:18;;;;;;;4.53;3.80;;;;;;;;;;5000073;28;20818;-71
2022/01/14 12:01:49;;;;;;;4.50;3.97;;;;;;;;;;5024703;28;20218;-67
2022/01/14 12:04:20;;;;;;;3.80;3.40;;;;;;;;;;5030783;28;20812;-66
2022/01/14 12:06:54;;;;;;;5.53;3.73;;;;;;;;;;5026640;28;20207;-69
2022/01/14 12:09:33;;;;;;;3.97;3.57;;;;;;;;;;5030964;28;20206;-69
2022/01/14 12:12:22;;;;;;;4.40;3.60;;;;;;;;;;5026516;28;20214;-68
2022/01/14 12:15:28;;;;;;;4.67;3.90;;;;;;;;;;5026573;28;20222;-70
2022/01/14 12:18:00;;;;;;;3.77;3.47;;;;;;;;;;5008565;28;20309;-69
2022/01/14 12:20:31;;;;;;;5.13;3.17;;;;;;;;;;5022816;28;20207;-66
2022/01/14 12:23:08;;;;;;;3.60;3.30;;;;;;;;;;5024721;28;20204;-66
2022/01/14 12:25:40;;;;;;;4.00;3.60;;;;;;;;;;5039499;28;20202;-66
2022/01/14 12:28:20;;;;;;;3.60;3.20;;;;;;;;;;5006180;28;20219;-67
2022/01/14 12:31:03;;;;;;;4.10;3.80;;;;;;;;;;5041929;28;20759;-68
2022/01/14 12:33:49;;;;;;;3.80;3.47;;;;;;;;;;5022144;28;20203;-69
2022/01/14 12:36:21;;;;;;;5.37;3.50;;;;;;;;;;5037634;28;20280;-67
2022/01/14 12:38:49;;;;;;;3.70;3.40;;;;;;;;;;5026318;28;20233;-67
2022/01/14 12:41:23;;;;;;;5.90;3.50;;;;;;;;;;5007835;28;20629;-69
2022/01/14 12:43:58;;;;;;;4.20;3.80;;;;;;;;;;5003514;28;20909;-70
2022/01/14 12:46:53;;;;;;;4.30;3.90;;;;;;;;;;4999336;28;20225;-69
2022/01/14 12:49:30;;;;;;;4.43;4.03;;;;;;;;;;5023825;28;20210;-69
2022/01/14 12:52:17;;;;;;;4.60;4.20;;;;;;;;;;5009636;28;20253;-70
2022/01/14 12:54:49;;;;;;;4.37;3.97;;;;;;;;;;5029232;28;20289;-71
2022/01/14 12:57:29;;;;;;;4.40;4.03;;;;;;;;;;5010082;28;20214;-67
2022/01/14 13:00:00;;;;;;;4.50;4.10;;;;;;;;;;5006652;28;20229;-67
2022/01/14 13:02:46;;;;;;;3.83;3.53;;;;;;;;;;5025261;28;20206;-68
2022/01/14 13:05:24;;;;;;;4.43;4.03;;;;;;;;;;5028640;28;20202;-68
2022/01/14 13:07:54;;;;;;;4.80;4.37;;;;;;;;;;5027001;28;20238;-68
2022/01/14 13:10:25;;;;;;;6.97;4.07;;;;;;;;;;5029539;28;20543;-67
2022/01/14 13:12:55;;;;;;;4.93;4.33;;;;;;;;;;5029209;28;20214;-68
2022/01/14 13:15:28;;;;;;;4.60;4.20;;;;;;;;;;5026824;28;20555;-70
2022/01/14 13:18:01;;;;;;;4.70;4.30;;;;;;;;;;5030966;28;20222;-71
2022/01/14 13:20:30;;;;;;;5.23;4.73;;;;;;;;;;5029535;28;20691;-68
2022/01/14 13:23:07;;;;;;;4.50;4.10;;;;;;;;;;5049162;28;20194;-68
2022/01/14 13:25:34;;;;;;;5.03;4.53;;;;;;;;;;5035984;28;20195;-68
2022/01/14 13:28:09;;;;;;;4.73;4.33;;;;;;;;;;5035586;28;20195;-69
2022/01/14 13:30:48;;;;;;;4.50;4.10;;;;;;;;;;5032332;28;20199;-68
2022/01/14 13:33:22;;;;;;;5.13;4.70;;;;;;;;;;5025790;28;20281;-68
2022/01/14 13:35:53;;;;;;;4.77;4.37;;;;;;;;;;5029579;28;20232;-70
2022/01/14 13:38:20;;;;;;;5.13;4.60;;;;;;;;;;5028811;28;20208;-69
2022/01/14 13:40:55;;;;;;;5.50;4.70;;;;;;;;;;5028394;28;20210;-74
2022/01/14 13:43:30;;;;;;;4.30;3.90;;;;;;;;;;5026348;28;21022;-74
2022/01/14 13:46:05;;;;;;;5.03;4.53;;;;;;;;;;5019713;28;20254;-74
2022/01/14 13:48:41;;;;;;;4.73;4.33;;;;;;;;;;5010811;28;20269;-73
2022/01/14 13:51:18;;;;;;;5.03;4.57;;;;;;;;;;5023663;28;20556;-73
2022/01/14 13:53:49;;;;;;;7.67;5.10;;;;;;;;;;5024377;28;20202;-70
2022/01/14 13:56:23;;;;;;;4.47;4.07;;;;;;;;;;5012716;28;20208;-68
2022/01/14 13:58:59;;;;;;;5.10;4.37;;;;;;;;;;5024620;28;20223;-69
2022/01/14 14:01:36;;;;;;;6.57;4.23;;;;;;;;;;5010116;28;20206;-70
2022/01/14 14:04:15;;;;;;;5.03;4.60;;;;;;;;;;5024520;28;20194;-70
2022/01/14 14:06:51;;;;;;;6.43;4.53;;;;;;;;;;5028133;28;20245;-68
2022/01/14 14:09:29;;;;;;;4.93;4.53;;;;;;;;;;5016581;28;20266;-68
2022/01/14 14:12:26;;;;;;;4.87;4.40;;;;;;;;;;5024645;28;20210;-69
2022/01/14 14:18:06;;;;;;;6.00;5.03;;;;;;;;;;5029280;28;20249;-70
2022/01/14 14:20:37;;;;;;;5.70;5.20;;;;;;;;;;5029386;28;20214;-69
2022/01/14 14:23:25;;;;;;;5.70;5.20;;;;;;;;;;5021303;28;20290;-69
2022/01/14 14:26:00;;;;;;;5.20;4.80;;;;;;;;;;5019388;28;20210;-67
2022/01/14 14:28:39;;;;;;;5.60;5.10;;;;;;;;;;5024234;28;20215;-66
2022/01/14 14:31:11;;;;;;;6.00;5.40;;;;;;;;;;5022086;28;20225;-68
2022/01/14 14:34:03;;;;;;;5.97;5.37;;;;;;;;;;5023443;28;20269;-69
2022/01/14 14:36:33;;;;;;;5.77;5.20;;;;;;;;;;5025804;28;20217;-67
2022/01/14 14:39:05;;;;;;;5.70;5.10;;;;;;;;;;5028768;28;20215;-66
2022/01/14 14:41:34;;;;;;;5.60;5.00;;;;;;;;;;5016178;28;20246;-66
2022/01/14 14:44:06;;;;;;;5.47;4.97;;;;;;;;;;5041252;28;20258;-65
2022/01/14 14:46:37;;;;;;;5.50;5.00;;;;;;;;;;5007862;28;20636;-69
2022/01/14 14:49:09;;;;;;;6.10;5.30;;;;;;;;;;5026144;28;20706;-68
2022/01/14 14:51:45;;;;;;;6.57;4.70;;;;;;;;;;5026787;28;20221;-68
2022/01/14 14:54:23;;;;;;;5.50;5.00;;;;;;;;;;5026903;28;20190;-68
2022/01/14 14:56:54;;;;;;;4.90;4.50;;;;;;;;;;5022676;28;20589;-68
2022/01/14 14:59:23;;;;;;;5.80;5.23;;;;;;;;;;5019880;28;20222;-69
2022/01/14 15:01:54;;;;;;;5.23;4.73;;;;;;;;;;5018925;28;20208;-70
2022/01/14 15:04:29;;;;;;;4.90;4.43;;;;;;;;;;5011949;28;20197;-70
2022/01/14 15:07:05;;;;;;;5.53;5.03;;;;;;;;;;5027873;28;20199;-64
2022/01/14 15:09:35;;;;;;;6.67;4.87;;;;;;;;;;5021976;28;20215;-65
2022/01/14 15:12:12;;;;;;;5.67;5.17;;;;;;;;;;5026124;28;20600;-65
2022/01/14 15:14:48;;;;;;;5.63;4.90;;;;;;;;;;5022530;28;20404;-65
2022/01/14 15:19:56;;;;;;;6.07;5.47;;;;;;;;;;5022713;28;20284;-65
2022/01/14 15:22:25;;;;;;;6.17;5.57;;;;;;;;;;5019955;28;20226;-66
2022/01/14 15:24:57;;;;;;;5.70;5.20;;;;;;;;;;5022174;28;20981;-66
2022/01/14 15:27:37;;;;;;;5.67;5.13;;;;;;;;;;5020862;28;20192;-67
2022/01/14 15:30:07;;;;;;;5.50;4.87;;;;;;;;;;5010297;28;20195;-66
2022/01/14 15:32:35;;;;;;;4.93;4.43;;;;;;;;;;5028740;28;20735;-66
2022/01/14 15:35:05;;;;;;;5.77;4.40;;;;;;;;;;5019319;28;20241;-66
2022/01/14 15:37:38;;;;;;;4.70;4.30;;;;;;;;;;5023525;28;20546;-65
2022/01/14 15:40:35;;;;;;;4.93;4.53;;;;;;;;;;5011635;28;20205;-65
2022/01/14 15:43:35;;;;;;;5.40;4.90;;;;;;;;;;4992422;28;20211;-65
2022/01/14 15:46:11;;;;;;;4.93;4.40;;;;;;;;;;5032012;28;20199;-66
2022/01/14 15:48:42;;;;;;;4.93;4.53;;;;;;;;;;5013531;28;20252;-66
2022/01/14 15:51:25;;;;;;;4.87;4.40;;;;;;;;;;5027103;28;20206;-66
2022/01/14 15:53:57;;;;;;;4.53;4.13;;;;;;;;;;5011462;28;20633;-67
2022/01/14 15:56:27;;;;;;;4.80;4.40;;;;;;;;;;5032224;28;20194;-65